sensor_id;sensor_type;location;lat;lon;timestamp;P1;durP1;ratioP1;P2;durP2;ratioP2
10699;SDS011;5401;41.986;21.452;2023-05-10T00:00:40;4.50;;;4.10;;
10699;SDS011;5401;41.986;21.452;2023-05-10T00:03:08;7.63;;;5.17;;
10699;SDS011;5401;41.986;21.452;2023-05-10T00:05:35;5.10;;;4.60;;
10699;SDS011;5401;41.986;21.452;2023-05-10T00:08:04;6.77;;;5.10;;
10699;SDS011;5401;41.986;21.452;2023-05-10T00:10:31;5.70;;;4.70;;
10699;SDS011;5401;41.986;21.452;2023-05-10T00:12:59;5.67;;;4.80;;
10699;SDS011;5401;41.986;21.452;2023-05-10T00:15:26;5.90;;;4.40;;
10699;SDS011;5401;41.986;21.452;2023-05-10T00:17:56;5.33;;;4.90;;
10699;SDS011;5401;41.986;21.452;2023-05-10T00:20:23;6.50;;;5.23;;
10699;SDS011;5401;41.986;21.452;2023-05-10T00:22:51;5.57;;;5.07;;
10699;SDS011;5401;41.986;21.452;2023-05-10T00:25:20;8.93;;;5.30;;
10699;SDS011;5401;41.986;21.452;2023-05-10T00:27:47;5.53;;;5.03;;
10699;SDS011;5401;41.986;21.452;2023-05-10T00:30:15;5.43;;;4.93;;
10699;SDS011;5401;41.986;21.452;2023-05-10T00:32:42;5.10;;;4.60;;
10699;SDS011;5401;41.986;21.452;2023-05-10T00:35:10;5.80;;;5.30;;
10699;SDS011;5401;41.986;21.452;2023-05-10T00:37:38;7.83;;;5.37;;
10699;SDS011;5401;41.986;21.452;2023-05-10T00:40:06;6.77;;;5.33;;
10699;SDS011;5401;41.986;21.452;2023-05-10T00:42:36;6.37;;;5.07;;
10699;SDS011;5401;41.986;21.452;2023-05-10T00:45:03;6.23;;;5.47;;
10699;SDS011;5401;41.986;21.452;2023-05-10T00:47:32;6.50;;;5.90;;
10699;SDS011;5401;41.986;21.452;2023-05-10T00:49:59;6.20;;;5.60;;
10699;SDS011;5401;41.986;21.452;2023-05-10T00:52:27;5.97;;;5.37;;
10699;SDS011;5401;41.986;21.452;2023-05-10T00:54:55;6.90;;;6.20;;
10699;SDS011;5401;41.986;21.452;2023-05-10T00:57:24;8.80;;;8.00;;
10699;SDS011;5401;41.986;21.452;2023-05-10T00:59:52;9.47;;;7.10;;
10699;SDS011;5401;41.986;21.452;2023-05-10T01:02:20;6.00;;;5.40;;
10699;SDS011;5401;41.986;21.452;2023-05-10T01:04:48;5.40;;;4.80;;
10699;SDS011;5401;41.986;21.452;2023-05-10T01:07:17;6.23;;;5.70;;
10699;SDS011;5401;41.986;21.452;2023-05-10T01:09:45;7.07;;;6.07;;
10699;SDS011;5401;41.986;21.452;2023-05-10T01:12:12;9.30;;;5.70;;
10699;SDS011;5401;41.986;21.452;2023-05-10T01:14:40;6.60;;;5.50;;
10699;SDS011;5401;41.986;21.452;2023-05-10T01:17:10;7.37;;;5.90;;
10699;SDS011;5401;41.986;21.452;2023-05-10T01:19:38;6.33;;;5.67;;
10699;SDS011;5401;41.986;21.452;2023-05-10T01:22:10;6.20;;;5.63;;
10699;SDS011;5401;41.986;21.452;2023-05-10T01:28:02;6.30;;;5.70;;
10699;SDS011;5401;41.986;21.452;2023-05-10T01:31:00;6.13;;;5.43;;
10699;SDS011;5401;41.986;21.452;2023-05-10T01:33:40;7.70;;;6.90;;
10699;SDS011;5401;41.986;21.452;2023-05-10T01:36:13;6.53;;;5.80;;
10699;SDS011;5401;41.986;21.452;2023-05-10T01:38:53;6.73;;;5.80;;
10699;SDS011;5401;41.986;21.452;2023-05-10T01:41:28;6.33;;;5.83;;
10699;SDS011;5401;41.986;21.452;2023-05-10T01:44:01;5.93;;;5.33;;
10699;SDS011;5401;41.986;21.452;2023-05-10T01:46:32;6.17;;;5.67;;
10699;SDS011;5401;41.986;21.452;2023-05-10T01:49:08;6.20;;;5.63;;
10699;SDS011;5401;41.986;21.452;2023-05-10T01:51:39;5.97;;;5.47;;
10699;SDS011;5401;41.986;21.452;2023-05-10T01:54:11;5.87;;;5.13;;
10699;SDS011;5401;41.986;21.452;2023-05-10T01:56:40;5.97;;;5.47;;
10699;SDS011;5401;41.986;21.452;2023-05-10T01:59:11;6.40;;;5.83;;
10699;SDS011;5401;41.986;21.452;2023-05-10T02:01:42;6.03;;;5.43;;
10699;SDS011;5401;41.986;21.452;2023-05-10T02:04:13;8.37;;;5.97;;
10699;SDS011;5401;41.986;21.452;2023-05-10T02:06:43;7.00;;;6.30;;
10699;SDS011;5401;41.986;21.452;2023-05-10T02:09:13;6.27;;;5.67;;
10699;SDS011;5401;41.986;21.452;2023-05-10T02:11:42;6.73;;;6.07;;
10699;SDS011;5401;41.986;21.452;2023-05-10T02:14:10;7.67;;;6.10;;
10699;SDS011;5401;41.986;21.452;2023-05-10T02:16:41;6.33;;;5.80;;
10699;SDS011;5401;41.986;21.452;2023-05-10T02:19:09;6.57;;;6.00;;
10699;SDS011;5401;41.986;21.452;2023-05-10T02:21:40;7.87;;;6.40;;
10699;SDS011;5401;41.986;21.452;2023-05-10T02:24:09;6.40;;;5.87;;
10699;SDS011;5401;41.986;21.452;2023-05-10T02:26:38;6.90;;;6.20;;
10699;SDS011;5401;41.986;21.452;2023-05-10T02:29:07;6.77;;;6.17;;
10699;SDS011;5401;41.986;21.452;2023-05-10T02:31:38;6.63;;;6.07;;
10699;SDS011;5401;41.986;21.452;2023-05-10T02:34:09;6.37;;;5.87;;
10699;SDS011;5401;41.986;21.452;2023-05-10T02:36:39;7.40;;;6.10;;
10699;SDS011;5401;41.986;21.452;2023-05-10T02:39:08;6.60;;;6.10;;
10699;SDS011;5401;41.986;21.452;2023-05-10T02:41:38;6.70;;;5.97;;
10699;SDS011;5401;41.986;21.452;2023-05-10T02:44:07;6.77;;;6.07;;
10699;SDS011;5401;41.986;21.452;2023-05-10T02:46:35;7.27;;;6.57;;
10699;SDS011;5401;41.986;21.452;2023-05-10T02:49:03;8.13;;;6.53;;
10699;SDS011;5401;41.986;21.452;2023-05-10T02:51:31;8.30;;;7.03;;
10699;SDS011;5401;41.986;21.452;2023-05-10T02:54:04;8.93;;;6.60;;
10699;SDS011;5401;41.986;21.452;2023-05-10T02:56:36;8.07;;;6.83;;
10699;SDS011;5401;41.986;21.452;2023-05-10T02:59:09;7.03;;;6.37;;
10699;SDS011;5401;41.986;21.452;2023-05-10T03:01:37;8.17;;;6.30;;
10699;SDS011;5401;41.986;21.452;2023-05-10T03:04:05;8.67;;;7.30;;
10699;SDS011;5401;41.986;21.452;2023-05-10T03:06:32;7.10;;;6.40;;
10699;SDS011;5401;41.986;21.452;2023-05-10T03:09:01;7.60;;;6.43;;
10699;SDS011;5401;41.986;21.452;2023-05-10T03:11:37;6.97;;;6.37;;
10699;SDS011;5401;41.986;21.452;2023-05-10T03:14:16;8.23;;;6.77;;
10699;SDS011;5401;41.986;21.452;2023-05-10T03:16:55;10.30;;;7.13;;
10699;SDS011;5401;41.986;21.452;2023-05-10T03:19:27;6.77;;;6.10;;
10699;SDS011;5401;41.986;21.452;2023-05-10T03:21:59;9.67;;;7.10;;
10699;SDS011;5401;41.986;21.452;2023-05-10T03:24:36;7.77;;;6.90;;
10699;SDS011;5401;41.986;21.452;2023-05-10T03:27:08;8.83;;;6.87;;
10699;SDS011;5401;41.986;21.452;2023-05-10T03:29:36;7.50;;;6.40;;
10699;SDS011;5401;41.986;21.452;2023-05-10T03:32:05;7.97;;;6.60;;
10699;SDS011;5401;41.986;21.452;2023-05-10T03:34:33;9.63;;;6.03;;
10699;SDS011;5401;41.986;21.452;2023-05-10T03:37:07;6.80;;;5.77;;
10699;SDS011;5401;41.986;21.452;2023-05-10T03:39:36;6.17;;;5.57;;
10699;SDS011;5401;41.986;21.452;2023-05-10T03:42:04;6.13;;;5.53;;
10699;SDS011;5401;41.986;21.452;2023-05-10T03:44:31;6.77;;;6.07;;
10699;SDS011;5401;41.986;21.452;2023-05-10T03:46:59;7.03;;;5.53;;
10699;SDS011;5401;41.986;21.452;2023-05-10T03:49:27;7.00;;;5.90;;
10699;SDS011;5401;41.986;21.452;2023-05-10T03:51:54;5.87;;;5.37;;
10699;SDS011;5401;41.986;21.452;2023-05-10T03:54:22;6.20;;;5.63;;
10699;SDS011;5401;41.986;21.452;2023-05-10T03:56:51;6.13;;;5.53;;
10699;SDS011;5401;41.986;21.452;2023-05-10T03:59:18;6.37;;;5.77;;
10699;SDS011;5401;41.986;21.452;2023-05-10T04:01:46;6.77;;;6.10;;
10699;SDS011;5401;41.986;21.452;2023-05-10T04:04:13;6.33;;;5.63;;
10699;SDS011;5401;41.986;21.452;2023-05-10T04:06:41;6.20;;;5.33;;
10699;SDS011;5401;41.986;21.452;2023-05-10T04:09:08;5.63;;;5.13;;
10699;SDS011;5401;41.986;21.452;2023-05-10T04:11:36;6.50;;;5.90;;
10699;SDS011;5401;41.986;21.452;2023-05-10T04:14:05;7.80;;;5.70;;
10699;SDS011;5401;41.986;21.452;2023-05-10T04:16:32;7.00;;;6.27;;
10699;SDS011;5401;41.986;21.452;2023-05-10T04:19:00;6.67;;;5.40;;
10699;SDS011;5401;41.986;21.452;2023-05-10T04:21:28;6.20;;;5.60;;
10699;SDS011;5401;41.986;21.452;2023-05-10T04:23:56;6.27;;;5.67;;
10699;SDS011;5401;41.986;21.452;2023-05-10T04:26:23;9.10;;;6.57;;
10699;SDS011;5401;41.986;21.452;2023-05-10T04:28:51;7.33;;;6.63;;
10699;SDS011;5401;41.986;21.452;2023-05-10T04:31:20;7.47;;;6.03;;
10699;SDS011;5401;41.986;21.452;2023-05-10T04:33:47;8.07;;;5.77;;
10699;SDS011;5401;41.986;21.452;2023-05-10T04:36:15;10.53;;;6.13;;
10699;SDS011;5401;41.986;21.452;2023-05-10T04:38:43;6.63;;;6.03;;
10699;SDS011;5401;41.986;21.452;2023-05-10T04:41:10;7.13;;;6.43;;
10699;SDS011;5401;41.986;21.452;2023-05-10T04:43:38;6.37;;;5.57;;
10699;SDS011;5401;41.986;21.452;2023-05-10T04:46:05;8.53;;;6.17;;
10699;SDS011;5401;41.986;21.452;2023-05-10T04:48:35;7.50;;;6.03;;
10699;SDS011;5401;41.986;21.452;2023-05-10T04:51:02;6.43;;;5.87;;
10699;SDS011;5401;41.986;21.452;2023-05-10T04:53:32;6.67;;;5.97;;
10699;SDS011;5401;41.986;21.452;2023-05-10T04:55:59;7.47;;;6.77;;
10699;SDS011;5401;41.986;21.452;2023-05-10T04:58:27;7.77;;;6.10;;
10699;SDS011;5401;41.986;21.452;2023-05-10T05:00:54;7.30;;;6.57;;
10699;SDS011;5401;41.986;21.452;2023-05-10T05:03:22;6.67;;;5.93;;
10699;SDS011;5401;41.986;21.452;2023-05-10T05:05:51;7.20;;;6.50;;
10699;SDS011;5401;41.986;21.452;2023-05-10T05:08:18;7.17;;;6.57;;
10699;SDS011;5401;41.986;21.452;2023-05-10T05:10:46;6.60;;;6.00;;
10699;SDS011;5401;41.986;21.452;2023-05-10T05:13:15;7.10;;;6.37;;
10699;SDS011;5401;41.986;21.452;2023-05-10T05:15:43;7.07;;;6.37;;
10699;SDS011;5401;41.986;21.452;2023-05-10T05:18:10;7.13;;;6.43;;
10699;SDS011;5401;41.986;21.452;2023-05-10T05:20:38;7.87;;;6.33;;
10699;SDS011;5401;41.986;21.452;2023-05-10T05:23:07;6.30;;;5.57;;
10699;SDS011;5401;41.986;21.452;2023-05-10T05:25:34;9.10;;;6.20;;
10699;SDS011;5401;41.986;21.452;2023-05-10T05:28:02;7.83;;;6.50;;
10699;SDS011;5401;41.986;21.452;2023-05-10T05:30:30;7.37;;;6.67;;
10699;SDS011;5401;41.986;21.452;2023-05-10T05:32:57;8.00;;;6.83;;
10699;SDS011;5401;41.986;21.452;2023-05-10T05:35:25;7.13;;;6.50;;
10699;SDS011;5401;41.986;21.452;2023-05-10T05:37:52;7.07;;;6.43;;
10699;SDS011;5401;41.986;21.452;2023-05-10T05:40:21;7.67;;;6.83;;
10699;SDS011;5401;41.986;21.452;2023-05-10T05:42:49;7.43;;;6.63;;
10699;SDS011;5401;41.986;21.452;2023-05-10T05:45:16;7.67;;;6.87;;
10699;SDS011;5401;41.986;21.452;2023-05-10T05:47:44;7.70;;;6.70;;
10699;SDS011;5401;41.986;21.452;2023-05-10T05:50:11;7.73;;;7.03;;
10699;SDS011;5401;41.986;21.452;2023-05-10T05:52:39;7.70;;;7.07;;
10699;SDS011;5401;41.986;21.452;2023-05-10T05:55:07;9.00;;;7.47;;
10699;SDS011;5401;41.986;21.452;2023-05-10T05:57:36;7.47;;;6.80;;
10699;SDS011;5401;41.986;21.452;2023-05-10T06:00:03;7.53;;;6.83;;
10699;SDS011;5401;41.986;21.452;2023-05-10T06:02:32;8.00;;;7.20;;
10699;SDS011;5401;41.986;21.452;2023-05-10T06:04:59;7.60;;;6.90;;
10699;SDS011;5401;41.986;21.452;2023-05-10T06:07:27;7.17;;;6.57;;
10699;SDS011;5401;41.986;21.452;2023-05-10T06:09:54;7.27;;;6.53;;
10699;SDS011;5401;41.986;21.452;2023-05-10T06:12:21;9.40;;;5.77;;
10699;SDS011;5401;41.986;21.452;2023-05-10T06:14:50;9.97;;;7.10;;
10699;SDS011;5401;41.986;21.452;2023-05-10T06:17:18;7.93;;;6.80;;
10699;SDS011;5401;41.986;21.452;2023-05-10T06:19:47;7.30;;;6.70;;
10699;SDS011;5401;41.986;21.452;2023-05-10T06:22:14;7.17;;;6.57;;
10699;SDS011;5401;41.986;21.452;2023-05-10T06:24:42;7.80;;;6.53;;
10699;SDS011;5401;41.986;21.452;2023-05-10T06:27:10;7.60;;;6.90;;
10699;SDS011;5401;41.986;21.452;2023-05-10T06:29:37;7.67;;;7.07;;
10699;SDS011;5401;41.986;21.452;2023-05-10T06:32:06;8.10;;;6.53;;
10699;SDS011;5401;41.986;21.452;2023-05-10T06:34:35;8.77;;;6.27;;
10699;SDS011;5401;41.986;21.452;2023-05-10T06:37:08;5.77;;;5.10;;
10699;SDS011;5401;41.986;21.452;2023-05-10T06:39:36;6.70;;;6.10;;
10699;SDS011;5401;41.986;21.452;2023-05-10T06:42:03;6.93;;;6.37;;
10699;SDS011;5401;41.986;21.452;2023-05-10T06:44:31;8.03;;;6.00;;
10699;SDS011;5401;41.986;21.452;2023-05-10T06:46:59;7.70;;;5.90;;
10699;SDS011;5401;41.986;21.452;2023-05-10T06:49:28;6.17;;;5.63;;
10699;SDS011;5401;41.986;21.452;2023-05-10T06:52:03;5.70;;;5.17;;
10699;SDS011;5401;41.986;21.452;2023-05-10T06:54:36;6.40;;;4.77;;
10699;SDS011;5401;41.986;21.452;2023-05-10T06:57:04;5.20;;;4.33;;
10699;SDS011;5401;41.986;21.452;2023-05-10T06:59:32;4.93;;;4.33;;
10699;SDS011;5401;41.986;21.452;2023-05-10T07:02:03;7.33;;;4.90;;
10699;SDS011;5401;41.986;21.452;2023-05-10T07:04:32;4.60;;;4.00;;
10699;SDS011;5401;41.986;21.452;2023-05-10T07:07:01;3.90;;;3.57;;
10699;SDS011;5401;41.986;21.452;2023-05-10T07:09:30;4.20;;;3.90;;
10699;SDS011;5401;41.986;21.452;2023-05-10T07:12:02;3.70;;;3.40;;
10699;SDS011;5401;41.986;21.452;2023-05-10T07:14:37;5.00;;;4.50;;
10699;SDS011;5401;41.986;21.452;2023-05-10T07:17:04;7.30;;;4.57;;
10699;SDS011;5401;41.986;21.452;2023-05-10T07:19:33;5.00;;;3.90;;
10699;SDS011;5401;41.986;21.452;2023-05-10T07:22:01;4.53;;;4.13;;
10699;SDS011;5401;41.986;21.452;2023-05-10T07:24:29;4.30;;;3.90;;
10699;SDS011;5401;41.986;21.452;2023-05-10T07:26:56;4.33;;;3.90;;
10699;SDS011;5401;41.986;21.452;2023-05-10T07:29:24;7.83;;;4.20;;
10699;SDS011;5401;41.986;21.452;2023-05-10T07:31:52;4.33;;;3.50;;
10699;SDS011;5401;41.986;21.452;2023-05-10T07:34:20;4.27;;;3.90;;
10699;SDS011;5401;41.986;21.452;2023-05-10T07:36:48;4.33;;;3.93;;
10699;SDS011;5401;41.986;21.452;2023-05-10T07:39:16;6.07;;;3.73;;
10699;SDS011;5401;41.986;21.452;2023-05-10T07:41:44;4.53;;;4.00;;
10699;SDS011;5401;41.986;21.452;2023-05-10T07:44:12;4.70;;;4.20;;
10699;SDS011;5401;41.986;21.452;2023-05-10T07:46:39;5.90;;;3.90;;
10699;SDS011;5401;41.986;21.452;2023-05-10T07:49:07;4.90;;;4.40;;
10699;SDS011;5401;41.986;21.452;2023-05-10T07:51:34;3.93;;;3.60;;
10699;SDS011;5401;41.986;21.452;2023-05-10T07:54:03;4.47;;;4.07;;
10699;SDS011;5401;41.986;21.452;2023-05-10T07:56:31;4.77;;;3.80;;
10699;SDS011;5401;41.986;21.452;2023-05-10T07:59:00;3.97;;;3.67;;
10699;SDS011;5401;41.986;21.452;2023-05-10T08:01:30;3.80;;;3.50;;
10699;SDS011;5401;41.986;21.452;2023-05-10T08:04:00;4.07;;;3.50;;
10699;SDS011;5401;41.986;21.452;2023-05-10T08:06:28;4.00;;;3.70;;
10699;SDS011;5401;41.986;21.452;2023-05-10T08:08:56;8.53;;;3.83;;
10699;SDS011;5401;41.986;21.452;2023-05-10T08:11:25;3.70;;;3.40;;
10699;SDS011;5401;41.986;21.452;2023-05-10T08:13:53;3.47;;;3.17;;
10699;SDS011;5401;41.986;21.452;2023-05-10T08:16:21;3.40;;;3.20;;
10699;SDS011;5401;41.986;21.452;2023-05-10T08:18:49;3.23;;;3.03;;
10699;SDS011;5401;41.986;21.452;2023-05-10T08:21:17;4.27;;;3.97;;
10699;SDS011;5401;41.986;21.452;2023-05-10T08:23:45;7.13;;;4.00;;
10699;SDS011;5401;41.986;21.452;2023-05-10T08:26:12;3.60;;;3.17;;
10699;SDS011;5401;41.986;21.452;2023-05-10T08:28:41;3.93;;;3.53;;
10699;SDS011;5401;41.986;21.452;2023-05-10T08:31:09;5.47;;;3.23;;
10699;SDS011;5401;41.986;21.452;2023-05-10T08:33:37;4.90;;;3.10;;
10699;SDS011;5401;41.986;21.452;2023-05-10T08:36:05;4.13;;;3.33;;
10699;SDS011;5401;41.986;21.452;2023-05-10T08:38:32;6.60;;;4.00;;
10699;SDS011;5401;41.986;21.452;2023-05-10T08:41:00;4.80;;;3.53;;
10699;SDS011;5401;41.986;21.452;2023-05-10T08:43:29;3.77;;;3.47;;
10699;SDS011;5401;41.986;21.452;2023-05-10T08:45:59;5.40;;;3.70;;
10699;SDS011;5401;41.986;21.452;2023-05-10T08:48:29;3.50;;;3.20;;
10699;SDS011;5401;41.986;21.452;2023-05-10T08:50:57;6.20;;;3.37;;
10699;SDS011;5401;41.986;21.452;2023-05-10T08:53:28;3.77;;;3.40;;
10699;SDS011;5401;41.986;21.452;2023-05-10T08:56:01;3.47;;;3.17;;
10699;SDS011;5401;41.986;21.452;2023-05-10T08:58:29;7.87;;;3.30;;
10699;SDS011;5401;41.986;21.452;2023-05-10T09:00:59;3.10;;;2.90;;
10699;SDS011;5401;41.986;21.452;2023-05-10T09:03:27;4.60;;;3.13;;
10699;SDS011;5401;41.986;21.452;2023-05-10T09:05:55;3.50;;;3.00;;
10699;SDS011;5401;41.986;21.452;2023-05-10T09:08:27;3.00;;;2.80;;
10699;SDS011;5401;41.986;21.452;2023-05-10T09:10:56;4.67;;;3.00;;
10699;SDS011;5401;41.986;21.452;2023-05-10T09:13:27;5.70;;;3.10;;
10699;SDS011;5401;41.986;21.452;2023-05-10T09:15:56;4.10;;;2.97;;
10699;SDS011;5401;41.986;21.452;2023-05-10T09:18:26;6.70;;;3.10;;
10699;SDS011;5401;41.986;21.452;2023-05-10T09:20:53;5.70;;;3.20;;
10699;SDS011;5401;41.986;21.452;2023-05-10T09:23:21;3.43;;;2.93;;
10699;SDS011;5401;41.986;21.452;2023-05-10T09:26:01;3.87;;;3.40;;
10699;SDS011;5401;41.986;21.452;2023-05-10T09:28:31;5.00;;;2.70;;
10699;SDS011;5401;41.986;21.452;2023-05-10T09:30:59;7.03;;;3.00;;
10699;SDS011;5401;41.986;21.452;2023-05-10T09:33:28;9.33;;;3.10;;
10699;SDS011;5401;41.986;21.452;2023-05-10T09:36:05;8.33;;;3.47;;
10699;SDS011;5401;41.986;21.452;2023-05-10T09:38:44;3.23;;;2.97;;
10699;SDS011;5401;41.986;21.452;2023-05-10T09:41:15;3.33;;;2.77;;
10699;SDS011;5401;41.986;21.452;2023-05-10T09:43:44;4.50;;;2.67;;
10699;SDS011;5401;41.986;21.452;2023-05-10T09:46:11;4.57;;;2.57;;
10699;SDS011;5401;41.986;21.452;2023-05-10T09:48:44;5.97;;;2.80;;
10699;SDS011;5401;41.986;21.452;2023-05-10T09:51:18;5.07;;;2.80;;
10699;SDS011;5401;41.986;21.452;2023-05-10T09:53:49;3.23;;;2.93;;
10699;SDS011;5401;41.986;21.452;2023-05-10T09:56:37;3.03;;;2.70;;
10699;SDS011;5401;41.986;21.452;2023-05-10T09:59:06;2.67;;;2.47;;
10699;SDS011;5401;41.986;21.452;2023-05-10T10:01:37;5.50;;;2.80;;
10699;SDS011;5401;41.986;21.452;2023-05-10T10:04:06;2.93;;;2.70;;
10699;SDS011;5401;41.986;21.452;2023-05-10T10:06:36;2.67;;;2.47;;
10699;SDS011;5401;41.986;21.452;2023-05-10T10:09:06;2.83;;;2.63;;
10699;SDS011;5401;41.986;21.452;2023-05-10T10:11:34;3.00;;;2.80;;
10699;SDS011;5401;41.986;21.452;2023-05-10T10:14:03;3.03;;;2.73;;
10699;SDS011;5401;41.986;21.452;2023-05-10T10:16:31;2.57;;;2.30;;
10699;SDS011;5401;41.986;21.452;2023-05-10T10:18:59;4.77;;;2.93;;
10699;SDS011;5401;41.986;21.452;2023-05-10T10:21:29;2.40;;;2.20;;
10699;SDS011;5401;41.986;21.452;2023-05-10T10:23:56;2.70;;;2.50;;
10699;SDS011;5401;41.986;21.452;2023-05-10T10:26:24;4.70;;;2.60;;
10699;SDS011;5401;41.986;21.452;2023-05-10T10:28:56;12.43;;;4.93;;
10699;SDS011;5401;41.986;21.452;2023-05-10T10:31:36;3.27;;;2.93;;
10699;SDS011;5401;41.986;21.452;2023-05-10T10:34:09;3.20;;;2.90;;
10699;SDS011;5401;41.986;21.452;2023-05-10T10:36:41;4.23;;;2.43;;
10699;SDS011;5401;41.986;21.452;2023-05-10T10:39:10;4.47;;;3.10;;
10699;SDS011;5401;41.986;21.452;2023-05-10T10:41:38;4.17;;;2.37;;
10699;SDS011;5401;41.986;21.452;2023-05-10T10:44:25;14.60;;;4.50;;
10699;SDS011;5401;41.986;21.452;2023-05-10T10:47:10;2.77;;;2.53;;
10699;SDS011;5401;41.986;21.452;2023-05-10T10:50:02;3.03;;;2.70;;
10699;SDS011;5401;41.986;21.452;2023-05-10T10:52:37;5.67;;;2.80;;
10699;SDS011;5401;41.986;21.452;2023-05-10T10:55:22;4.67;;;3.00;;
10699;SDS011;5401;41.986;21.452;2023-05-10T10:57:55;2.77;;;2.57;;
10699;SDS011;5401;41.986;21.452;2023-05-10T11:00:28;2.70;;;2.50;;
10699;SDS011;5401;41.986;21.452;2023-05-10T11:02:59;8.20;;;2.77;;
10699;SDS011;5401;41.986;21.452;2023-05-10T11:05:35;2.87;;;2.57;;
10699;SDS011;5401;41.986;21.452;2023-05-10T11:11:15;10.00;;;3.00;;
10699;SDS011;5401;41.986;21.452;2023-05-10T11:14:04;6.70;;;2.63;;
10699;SDS011;5401;41.986;21.452;2023-05-10T11:16:45;2.50;;;2.30;;
10699;SDS011;5401;41.986;21.452;2023-05-10T11:25:39;7.80;;;2.30;;
10699;SDS011;5401;41.986;21.452;2023-05-10T11:28:44;6.47;;;2.77;;
10699;SDS011;5401;41.986;21.452;2023-05-10T11:35:06;6.07;;;2.77;;
10699;SDS011;5401;41.986;21.452;2023-05-10T11:37:47;11.30;;;3.17;;
10699;SDS011;5401;41.986;21.452;2023-05-10T11:40:27;8.33;;;2.60;;
10699;SDS011;5401;41.986;21.452;2023-05-10T11:42:57;2.27;;;2.07;;
10699;SDS011;5401;41.986;21.452;2023-05-10T11:45:26;5.47;;;2.40;;
10699;SDS011;5401;41.986;21.452;2023-05-10T11:47:55;3.13;;;2.00;;
10699;SDS011;5401;41.986;21.452;2023-05-10T11:50:25;4.90;;;1.87;;
10699;SDS011;5401;41.986;21.452;2023-05-10T11:53:00;10.43;;;2.20;;
10699;SDS011;5401;41.986;21.452;2023-05-10T11:55:36;4.47;;;1.90;;
10699;SDS011;5401;41.986;21.452;2023-05-10T11:58:19;3.67;;;2.10;;
10699;SDS011;5401;41.986;21.452;2023-05-10T12:00:54;2.53;;;1.70;;
10699;SDS011;5401;41.986;21.452;2023-05-10T12:03:23;5.73;;;2.60;;
10699;SDS011;5401;41.986;21.452;2023-05-10T12:05:52;2.27;;;1.70;;
10699;SDS011;5401;41.986;21.452;2023-05-10T12:08:23;1.57;;;1.47;;
10699;SDS011;5401;41.986;21.452;2023-05-10T12:11:08;3.33;;;2.00;;
10699;SDS011;5401;41.986;21.452;2023-05-10T12:13:55;5.83;;;2.40;;
10699;SDS011;5401;41.986;21.452;2023-05-10T12:16:29;2.53;;;1.80;;
10699;SDS011;5401;41.986;21.452;2023-05-10T12:19:03;2.43;;;1.90;;
10699;SDS011;5401;41.986;21.452;2023-05-10T12:21:33;14.03;;;2.00;;
10699;SDS011;5401;41.986;21.452;2023-05-10T12:24:03;2.07;;;1.87;;
10699;SDS011;5401;41.986;21.452;2023-05-10T12:26:33;6.20;;;2.20;;
10699;SDS011;5401;41.986;21.452;2023-05-10T12:32:10;3.57;;;1.90;;
10699;SDS011;5401;41.986;21.452;2023-05-10T12:35:07;2.03;;;1.80;;
10699;SDS011;5401;41.986;21.452;2023-05-10T12:37:46;6.47;;;2.10;;
10699;SDS011;5401;41.986;21.452;2023-05-10T12:40:22;3.77;;;2.23;;
10699;SDS011;5401;41.986;21.452;2023-05-10T12:42:53;2.60;;;2.33;;
10699;SDS011;5401;41.986;21.452;2023-05-10T12:48:45;1.50;;;1.40;;
10699;SDS011;5401;41.986;21.452;2023-05-10T12:51:20;3.60;;;1.90;;
10699;SDS011;5401;41.986;21.452;2023-05-10T12:53:53;4.90;;;2.13;;
10699;SDS011;5401;41.986;21.452;2023-05-10T12:56:23;2.00;;;1.80;;
10699;SDS011;5401;41.986;21.452;2023-05-10T12:58:54;4.20;;;1.80;;
10699;SDS011;5401;41.986;21.452;2023-05-10T13:01:26;3.10;;;2.20;;
10699;SDS011;5401;41.986;21.452;2023-05-10T13:03:58;5.93;;;1.90;;
10699;SDS011;5401;41.986;21.452;2023-05-10T13:06:27;2.10;;;1.90;;
10699;SDS011;5401;41.986;21.452;2023-05-10T13:08:57;4.93;;;1.63;;
10699;SDS011;5401;41.986;21.452;2023-05-10T13:11:29;2.00;;;1.80;;
10699;SDS011;5401;41.986;21.452;2023-05-10T13:14:01;3.27;;;2.00;;
10699;SDS011;5401;41.986;21.452;2023-05-10T13:16:33;3.47;;;2.10;;
10699;SDS011;5401;41.986;21.452;2023-05-10T13:19:05;2.20;;;1.80;;
10699;SDS011;5401;41.986;21.452;2023-05-10T13:21:33;2.73;;;1.70;;
10699;SDS011;5401;41.986;21.452;2023-05-10T13:24:02;2.93;;;1.40;;
10699;SDS011;5401;41.986;21.452;2023-05-10T13:26:31;2.13;;;1.93;;
10699;SDS011;5401;41.986;21.452;2023-05-10T13:29:00;3.00;;;1.97;;
10699;SDS011;5401;41.986;21.452;2023-05-10T13:31:33;4.63;;;1.97;;
10699;SDS011;5401;41.986;21.452;2023-05-10T13:34:04;2.63;;;1.90;;
10699;SDS011;5401;41.986;21.452;2023-05-10T13:36:33;2.00;;;1.90;;
10699;SDS011;5401;41.986;21.452;2023-05-10T13:39:03;5.17;;;2.23;;
10699;SDS011;5401;41.986;21.452;2023-05-10T13:41:35;3.23;;;2.27;;
10699;SDS011;5401;41.986;21.452;2023-05-10T13:44:15;5.60;;;2.10;;
10699;SDS011;5401;41.986;21.452;2023-05-10T13:46:48;2.70;;;2.20;;
10699;SDS011;5401;41.986;21.452;2023-05-10T13:49:28;4.07;;;2.47;;
10699;SDS011;5401;41.986;21.452;2023-05-10T13:51:59;2.30;;;2.10;;
10699;SDS011;5401;41.986;21.452;2023-05-10T13:54:33;2.23;;;1.90;;
10699;SDS011;5401;41.986;21.452;2023-05-10T13:57:05;4.47;;;2.00;;
10699;SDS011;5401;41.986;21.452;2023-05-10T13:59:34;3.63;;;2.17;;
10699;SDS011;5401;41.986;21.452;2023-05-10T14:02:04;3.27;;;1.83;;
10699;SDS011;5401;41.986;21.452;2023-05-10T14:04:36;2.37;;;1.80;;
10699;SDS011;5401;41.986;21.452;2023-05-10T14:07:08;2.40;;;1.90;;
10699;SDS011;5401;41.986;21.452;2023-05-10T14:09:36;2.47;;;2.27;;
10699;SDS011;5401;41.986;21.452;2023-05-10T14:12:05;3.23;;;1.93;;
10699;SDS011;5401;41.986;21.452;2023-05-10T14:14:34;2.17;;;1.97;;
10699;SDS011;5401;41.986;21.452;2023-05-10T14:17:05;2.63;;;2.03;;
10699;SDS011;5401;41.986;21.452;2023-05-10T14:19:41;3.80;;;1.87;;
10699;SDS011;5401;41.986;21.452;2023-05-10T14:22:14;2.77;;;2.20;;
10699;SDS011;5401;41.986;21.452;2023-05-10T14:24:57;5.03;;;2.47;;
10699;SDS011;5401;41.986;21.452;2023-05-10T14:27:50;2.50;;;1.93;;
10699;SDS011;5401;41.986;21.452;2023-05-10T14:30:22;3.50;;;2.00;;
10699;SDS011;5401;41.986;21.452;2023-05-10T14:33:01;4.07;;;1.80;;
10699;SDS011;5401;41.986;21.452;2023-05-10T14:35:54;3.37;;;2.07;;
10699;SDS011;5401;41.986;21.452;2023-05-10T14:38:39;2.57;;;2.03;;
10699;SDS011;5401;41.986;21.452;2023-05-10T14:41:16;3.67;;;1.87;;
10699;SDS011;5401;41.986;21.452;2023-05-10T14:43:54;2.67;;;2.23;;
10699;SDS011;5401;41.986;21.452;2023-05-10T14:46:23;4.93;;;2.60;;
10699;SDS011;5401;41.986;21.452;2023-05-10T14:48:57;3.83;;;2.50;;
10699;SDS011;5401;41.986;21.452;2023-05-10T14:51:28;2.53;;;2.33;;
10699;SDS011;5401;41.986;21.452;2023-05-10T14:53:56;3.40;;;2.40;;
10699;SDS011;5401;41.986;21.452;2023-05-10T14:56:35;2.73;;;1.90;;
10699;SDS011;5401;41.986;21.452;2023-05-10T14:59:12;3.73;;;2.30;;
10699;SDS011;5401;41.986;21.452;2023-05-10T15:01:43;2.03;;;1.77;;
10699;SDS011;5401;41.986;21.452;2023-05-10T15:04:28;3.27;;;2.00;;
10699;SDS011;5401;41.986;21.452;2023-05-10T15:07:03;5.03;;;1.90;;
10699;SDS011;5401;41.986;21.452;2023-05-10T15:09:40;7.03;;;1.97;;
10699;SDS011;5401;41.986;21.452;2023-05-10T15:12:14;3.40;;;2.67;;
10699;SDS011;5401;41.986;21.452;2023-05-10T15:14:48;2.23;;;2.10;;
10699;SDS011;5401;41.986;21.452;2023-05-10T15:17:26;2.77;;;2.47;;
10699;SDS011;5401;41.986;21.452;2023-05-10T15:20:09;2.20;;;2.00;;
10699;SDS011;5401;41.986;21.452;2023-05-10T15:22:47;4.37;;;2.20;;
10699;SDS011;5401;41.986;21.452;2023-05-10T15:25:30;5.20;;;2.33;;
10699;SDS011;5401;41.986;21.452;2023-05-10T15:28:07;2.60;;;2.40;;
10699;SDS011;5401;41.986;21.452;2023-05-10T15:30:41;2.90;;;2.40;;
10699;SDS011;5401;41.986;21.452;2023-05-10T15:33:17;2.10;;;2.00;;